createdAt,value
2022-10-18T00:02:04.306Z,91.08
2022-10-18T00:04:30.946Z,91.38
2022-10-18T00:06:57.638Z,91.29
2022-10-18T00:09:24.802Z,91.21
2022-10-18T00:11:51.647Z,91.48
2022-10-18T00:14:18.275Z,91.06
2022-10-18T00:16:44.723Z,90.89
2022-10-18T00:19:11.169Z,91.53
2022-10-18T00:21:37.570Z,91.38
2022-10-18T00:24:04.777Z,91.32
2022-10-18T00:26:31.995Z,92.00
2022-10-18T00:29:01.449Z,91.75
2022-10-18T00:31:36.706Z,91.33
2022-10-18T00:34:14.581Z,91.45
2022-10-18T00:36:42.227Z,91.74
2022-10-18T00:39:14.028Z,91.38
2022-10-18T00:41:40.513Z,90.95
2022-10-18T00:44:26.946Z,91.83
2022-10-18T00:46:58.493Z,94.48
2022-10-18T00:49:32.997Z,94.37
2022-10-18T00:52:03.432Z,94.32
2022-10-18T00:54:32.059Z,94.06
2022-10-18T00:56:58.939Z,94.09
2022-10-18T00:59:26.022Z,93.89
2022-10-18T01:01:52.547Z,93.60
2022-10-18T01:04:20.776Z,93.17
2022-10-18T01:06:53.480Z,92.94
2022-10-18T01:09:32.657Z,93.80
2022-10-18T01:12:16.224Z,93.51
2022-10-18T01:14:51.160Z,93.54
2022-10-18T01:17:44.519Z,93.40
2022-10-18T01:20:23.027Z,94.98
2022-10-18T01:23:13.652Z,94.52
2022-10-18T01:26:05.445Z,93.88
2022-10-18T01:28:56.771Z,94.87
2022-10-18T01:32:00.573Z,95.45
2022-10-18T01:34:31.512Z,95.74
2022-10-18T01:37:01.206Z,95.23
2022-10-18T01:39:32.976Z,96.29
2022-10-18T01:42:02.788Z,96.49
2022-10-18T01:44:32.920Z,96.70
2022-10-18T01:46:59.933Z,96.53
2022-10-18T01:49:26.727Z,96.17
2022-10-18T01:51:53.643Z,96.14
2022-10-18T01:54:30.968Z,95.57
2022-10-18T01:57:07.122Z,96.12
2022-10-18T02:00:19.089Z,97.46
2022-10-18T02:02:53.721Z,98.71
2022-10-18T02:05:43.787Z,98.08
2022-10-18T02:08:25.451Z,97.31
2022-10-18T02:10:57.692Z,97.90
2022-10-18T02:13:29.604Z,99.23
2022-10-18T02:16:03.930Z,99.21
2022-10-18T02:18:41.357Z,100.00
2022-10-18T02:21:11.439Z,99.45
2022-10-18T02:23:38.834Z,100.00
2022-10-18T02:26:06.270Z,100.00
2022-10-18T02:28:32.741Z,100.00
2022-10-18T02:31:02.959Z,100.00
2022-10-18T02:33:46.042Z,100.00
2022-10-18T02:36:27.388Z,100.00
2022-10-18T02:39:01.330Z,100.00
2022-10-18T02:41:28.114Z,100.00
2022-10-18T02:43:54.572Z,100.00
2022-10-18T02:46:21.326Z,100.00
2022-10-18T02:48:48.006Z,100.00
2022-10-18T02:51:14.504Z,100.00
2022-10-18T02:53:41.202Z,100.00
2022-10-18T02:56:08.082Z,100.00
2022-10-18T02:58:34.577Z,100.00
2022-10-18T03:01:01.038Z,100.00
2022-10-18T03:03:27.442Z,100.00
2022-10-18T03:05:53.803Z,100.00
2022-10-18T03:08:20.194Z,100.00
2022-10-18T03:10:47.035Z,100.00
2022-10-18T03:13:13.812Z,100.00
2022-10-18T03:15:40.251Z,100.00
2022-10-18T03:18:06.615Z,100.00
2022-10-18T03:20:34.236Z,100.00
2022-10-18T03:23:00.797Z,100.00
2022-10-18T03:25:27.186Z,100.00
2022-10-18T03:27:53.758Z,100.00
2022-10-18T03:30:20.206Z,100.00
2022-10-18T03:32:46.659Z,100.00
2022-10-18T03:35:13.119Z,100.00
2022-10-18T03:37:39.538Z,100.00
2022-10-18T03:40:06.732Z,100.00
2022-10-18T03:42:33.251Z,100.00
2022-10-18T03:45:00.013Z,100.00
2022-10-18T03:47:26.400Z,100.00
2022-10-18T03:49:56.254Z,100.00
2022-10-18T03:52:23.786Z,100.00
2022-10-18T03:54:50.225Z,100.00
2022-10-18T03:57:16.691Z,100.00
2022-10-18T03:59:43.446Z,100.00
2022-10-18T04:02:10.063Z,100.00
2022-10-18T04:04:36.470Z,100.00
2022-10-18T04:07:02.891Z,100.00
2022-10-18T04:09:29.279Z,100.00
2022-10-18T04:11:55.812Z,100.00
2022-10-18T04:14:22.261Z,100.00
2022-10-18T04:16:48.746Z,100.00
2022-10-18T04:19:15.318Z,100.00
2022-10-18T04:21:41.817Z,100.00
2022-10-18T04:24:08.225Z,100.00
2022-10-18T04:26:34.623Z,100.00
2022-10-18T04:29:01.075Z,100.00
2022-10-18T04:31:27.517Z,100.00
2022-10-18T04:33:54.145Z,100.00
2022-10-18T04:36:20.633Z,100.00
2022-10-18T04:38:47.006Z,100.00
2022-10-18T04:41:13.414Z,100.00
2022-10-18T04:43:39.786Z,100.00
2022-10-18T04:46:06.494Z,100.00
2022-10-18T04:48:32.865Z,100.00
2022-10-18T04:50:59.267Z,100.00
2022-10-18T04:53:25.783Z,100.00
2022-10-18T04:55:52.241Z,100.00
2022-10-18T04:58:18.850Z,100.00
2022-10-18T05:00:47.522Z,100.00
2022-10-18T05:03:14.743Z,100.00
2022-10-18T05:06:00.145Z,100.00
2022-10-18T05:08:27.705Z,100.00
2022-10-18T05:10:54.385Z,100.00
2022-10-18T05:13:20.823Z,100.00
2022-10-18T05:15:47.543Z,100.00
2022-10-18T05:18:13.980Z,100.00
2022-10-18T05:20:40.489Z,100.00
2022-10-18T05:23:10.605Z,100.00
2022-10-18T05:25:40.913Z,100.00
2022-10-18T05:28:11.126Z,100.00
2022-10-18T05:30:47.861Z,100.00
2022-10-18T05:33:14.387Z,100.00
2022-10-18T05:35:40.795Z,100.00
2022-10-18T05:38:07.351Z,100.00
2022-10-18T05:40:34.106Z,100.00
2022-10-18T05:43:00.468Z,100.00
2022-10-18T05:45:26.844Z,100.00
2022-10-18T05:47:54.114Z,100.00
2022-10-18T05:50:20.786Z,100.00
2022-10-18T05:52:47.261Z,100.00
2022-10-18T05:55:13.773Z,100.00
2022-10-18T05:57:40.271Z,100.00
2022-10-18T06:00:07.242Z,100.00
2022-10-18T06:02:33.703Z,100.00
2022-10-18T06:05:00.092Z,100.00
2022-10-18T06:07:26.449Z,100.00
2022-10-18T06:09:52.841Z,100.00
2022-10-18T06:12:19.287Z,100.00
2022-10-18T06:14:45.830Z,100.00
2022-10-18T06:17:12.302Z,100.00
2022-10-18T06:19:38.934Z,100.00
2022-10-18T06:22:05.321Z,100.00
2022-10-18T06:24:31.772Z,100.00
2022-10-18T06:26:58.347Z,100.00
2022-10-18T06:29:24.741Z,100.00
2022-10-18T06:31:51.107Z,100.00
2022-10-18T06:34:17.527Z,100.00
2022-10-18T06:36:43.941Z,100.00
2022-10-18T06:39:10.593Z,100.00
2022-10-18T06:41:37.093Z,100.00
2022-10-18T06:44:13.306Z,100.00
2022-10-18T06:46:44.558Z,100.00
2022-10-18T06:49:13.107Z,100.00
2022-10-18T06:51:43.341Z,100.00
2022-10-18T06:54:18.724Z,100.00
2022-10-18T06:56:45.616Z,100.00
2022-10-18T06:59:12.220Z,100.00
2022-10-18T07:01:38.816Z,100.00
2022-10-18T07:04:05.313Z,100.00
2022-10-18T07:06:31.766Z,100.00
2022-10-18T07:08:58.283Z,100.00
2022-10-18T07:11:26.338Z,100.00
2022-10-18T07:13:54.711Z,100.00
2022-10-18T07:16:21.529Z,100.00
2022-10-18T07:18:50.453Z,100.00
2022-10-18T07:21:22.344Z,100.00
2022-10-18T07:23:49.806Z,100.00
2022-10-18T07:26:23.782Z,100.00
2022-10-18T07:28:59.081Z,100.00
2022-10-18T07:31:25.948Z,100.00
2022-10-18T07:33:52.535Z,100.00
2022-10-18T07:36:20.967Z,100.00
2022-10-18T07:38:47.746Z,100.00
2022-10-18T07:41:14.626Z,100.00
2022-10-18T07:43:46.900Z,100.00
2022-10-18T07:46:14.453Z,100.00
2022-10-18T07:48:41.376Z,99.85
2022-10-18T07:51:08.520Z,99.39
2022-10-18T07:53:35.128Z,99.53
2022-10-18T07:56:08.729Z,99.85
2022-10-18T07:58:36.277Z,99.49
2022-10-18T08:01:04.705Z,99.60
2022-10-18T08:03:31.628Z,100.00
2022-10-18T08:05:58.029Z,99.74
2022-10-18T08:08:25.344Z,99.53
2022-10-18T08:10:52.345Z,100.00
2022-10-18T08:13:19.291Z,100.00
2022-10-18T08:15:46.159Z,100.00
2022-10-18T08:18:13.315Z,100.00
2022-10-18T08:20:44.837Z,99.58
2022-10-18T08:23:11.753Z,98.87
2022-10-18T08:25:38.380Z,98.67
2022-10-18T08:28:05.134Z,98.65
2022-10-18T08:30:31.695Z,98.82
2022-10-18T08:32:58.268Z,98.64
2022-10-18T08:35:24.736Z,98.41
2022-10-18T08:37:51.305Z,97.47
2022-10-18T08:40:17.740Z,96.10
2022-10-18T08:42:52.742Z,95.66
2022-10-18T08:45:37.518Z,94.83
2022-10-18T08:48:07.836Z,93.26
2022-10-18T08:50:37.697Z,92.11
2022-10-18T08:53:25.201Z,92.46
2022-10-18T08:56:03.774Z,92.08
2022-10-18T08:58:32.183Z,91.54
2022-10-18T09:01:11.775Z,91.36
2022-10-18T09:03:54.074Z,91.32
2022-10-18T09:06:45.337Z,91.96
2022-10-18T09:09:23.643Z,93.65
2022-10-18T09:12:07.699Z,94.45
2022-10-18T09:15:21.699Z,94.18
2022-10-18T09:18:14.041Z,93.66
2022-10-18T09:20:46.268Z,93.37
2022-10-18T09:23:22.883Z,93.49
2022-10-18T09:25:57.455Z,93.19
2022-10-18T09:28:51.704Z,90.74
2022-10-18T09:31:41.027Z,90.49
2022-10-18T09:34:19.354Z,89.64
2022-10-18T09:36:47.368Z,90.59
2022-10-18T09:39:18.567Z,90.51
2022-10-18T09:41:48.494Z,90.32
2022-10-18T09:44:23.398Z,90.61
2022-10-18T09:46:58.805Z,90.21
2022-10-18T09:49:36.625Z,89.31
2022-10-18T09:52:08.950Z,88.51
2022-10-18T09:54:43.645Z,87.53
2022-10-18T09:57:22.002Z,85.69
2022-10-18T09:59:50.574Z,85.23
2022-10-18T10:02:22.523Z,84.26
2022-10-18T10:04:50.217Z,83.78
2022-10-18T10:07:34.866Z,84.06
2022-10-18T10:10:16.675Z,82.34
2022-10-18T10:12:46.105Z,82.97
2022-10-18T10:15:19.436Z,81.14
2022-10-18T10:18:17.604Z,79.68
2022-10-18T10:20:45.581Z,80.67
2022-10-18T10:23:23.301Z,82.04
2022-10-18T10:25:55.219Z,82.90
2022-10-18T10:28:31.102Z,82.60
2022-10-18T10:31:33.908Z,81.50
2022-10-18T10:34:03.310Z,78.91
2022-10-18T10:36:35.006Z,76.81
2022-10-18T10:39:07.859Z,76.48
2022-10-18T10:41:34.887Z,74.61
2022-10-18T10:44:04.087Z,76.11
2022-10-18T10:46:36.483Z,77.31
2022-10-18T10:49:35.052Z,79.32
2022-10-18T10:52:08.802Z,79.14
2022-10-18T10:54:50.399Z,78.64
2022-10-18T10:57:24.580Z,78.55
2022-10-18T10:59:53.945Z,77.96
2022-10-18T11:02:22.121Z,78.55
2022-10-18T11:04:50.858Z,76.72
2022-10-18T11:07:26.335Z,75.69
2022-10-18T11:10:15.298Z,75.94
2022-10-18T11:12:46.981Z,75.14
2022-10-18T11:15:28.627Z,74.04
2022-10-18T11:18:22.301Z,73.13
2022-10-18T11:21:11.388Z,71.86
2022-10-18T11:23:41.077Z,72.09
2022-10-18T11:26:07.427Z,69.35
2022-10-18T11:28:36.848Z,65.54
2022-10-18T11:31:26.737Z,65.19
2022-10-18T11:34:11.646Z,66.55
2022-10-18T11:36:54.590Z,64.60
2022-10-18T11:39:50.086Z,65.26
2022-10-18T11:42:23.086Z,66.95
2022-10-18T11:44:52.134Z,67.22
2022-10-18T11:47:37.033Z,68.28
2022-10-18T11:50:26.108Z,67.38
2022-10-18T11:53:04.865Z,65.13
2022-10-18T11:56:05.271Z,65.58
2022-10-18T11:58:55.361Z,67.21
2022-10-18T12:01:36.115Z,69.16
2022-10-18T12:04:07.186Z,69.45
2022-10-18T12:06:37.691Z,70.56
2022-10-18T12:09:13.237Z,71.34
2022-10-18T12:11:54.865Z,69.92
2022-10-18T12:14:38.725Z,69.72
2022-10-18T12:17:40.757Z,69.97
2022-10-18T12:20:14.761Z,70.92
2022-10-18T12:23:10.107Z,71.31
2022-10-18T12:25:40.727Z,70.80
2022-10-18T12:28:28.485Z,70.55
2022-10-18T12:31:25.539Z,73.09
2022-10-18T12:33:58.324Z,74.79
2022-10-18T12:36:49.746Z,73.99
2022-10-18T12:39:38.982Z,74.30
2022-10-18T12:42:25.738Z,72.78
2022-10-18T12:45:27.715Z,73.81
2022-10-18T12:47:58.759Z,72.01
2022-10-18T12:50:37.064Z,71.87
2022-10-18T12:53:12.400Z,72.29
2022-10-18T12:55:40.935Z,71.68
2022-10-18T12:58:13.120Z,70.55
2022-10-18T13:00:41.538Z,70.98
2022-10-18T13:03:14.318Z,71.86
2022-10-18T13:05:55.054Z,71.66
2022-10-18T13:08:28.124Z,71.17
2022-10-18T13:11:12.827Z,71.37
2022-10-18T13:14:06.719Z,70.70
2022-10-18T13:16:57.330Z,70.21
2022-10-18T13:19:29.377Z,68.49
2022-10-18T13:22:33.064Z,66.04
2022-10-18T13:25:14.925Z,57.81
2022-10-18T13:27:53.301Z,57.21
2022-10-18T13:30:32.046Z,58.80
2022-10-18T13:33:22.731Z,60.98
2022-10-18T13:36:01.775Z,62.39
2022-10-18T13:38:42.000Z,64.43
2022-10-18T13:41:12.472Z,65.16
2022-10-18T13:43:59.438Z,64.50
2022-10-18T13:46:34.976Z,63.44
2022-10-18T13:49:29.344Z,62.89
2022-10-18T13:52:07.846Z,62.64
2022-10-18T13:55:31.063Z,62.90
2022-10-18T13:58:21.551Z,62.52
2022-10-18T14:01:14.275Z,63.07
2022-10-18T14:04:01.948Z,62.14
2022-10-18T14:06:36.237Z,63.51
2022-10-18T14:09:46.532Z,61.45
2022-10-18T14:12:28.747Z,63.04
2022-10-18T14:15:02.515Z,60.93
2022-10-18T14:17:53.045Z,61.40
2022-10-18T14:20:29.940Z,62.27
2022-10-18T14:23:05.020Z,63.77
2022-10-18T14:25:37.940Z,64.40
2022-10-18T14:28:12.249Z,64.52
2022-10-18T14:30:59.619Z,64.93
2022-10-18T14:33:38.231Z,64.87
2022-10-18T14:36:22.004Z,65.39
2022-10-18T14:39:00.267Z,66.83
2022-10-18T14:41:30.075Z,67.56
2022-10-18T14:44:11.501Z,68.27
2022-10-18T14:46:48.051Z,68.83
2022-10-18T14:49:15.544Z,70.35
2022-10-18T14:51:45.308Z,71.59
2022-10-18T14:54:31.565Z,72.47
2022-10-18T14:56:59.733Z,72.45
2022-10-18T14:59:29.444Z,70.09
2022-10-18T15:02:00.018Z,70.23
2022-10-18T15:04:34.752Z,70.16
2022-10-18T15:07:07.398Z,70.04
2022-10-18T15:09:37.126Z,69.80
2022-10-18T15:12:06.351Z,69.57
2022-10-18T15:14:34.026Z,71.29
2022-10-18T15:17:07.411Z,71.75
2022-10-18T15:19:36.434Z,71.86
2022-10-18T15:22:30.958Z,72.13
2022-10-18T15:25:14.719Z,73.10
2022-10-18T15:27:45.118Z,74.69
2022-10-18T15:30:22.733Z,74.67
2022-10-18T15:33:01.339Z,76.36
2022-10-18T15:35:31.505Z,77.59
2022-10-18T15:38:13.537Z,77.92
2022-10-18T15:40:41.205Z,77.83
2022-10-18T15:43:23.095Z,76.48
2022-10-18T15:46:29.019Z,78.93
2022-10-18T15:49:18.451Z,80.09
2022-10-18T15:51:49.266Z,80.94
2022-10-18T15:54:19.467Z,80.86
2022-10-18T15:56:46.234Z,83.00
2022-10-18T15:59:25.255Z,84.14
2022-10-18T16:01:51.884Z,84.30
2022-10-18T16:04:30.004Z,84.25
2022-10-18T16:06:57.968Z,84.46
2022-10-18T16:09:27.295Z,85.01
2022-10-18T16:11:57.276Z,85.06
2022-10-18T16:14:27.238Z,87.72
2022-10-18T16:17:02.325Z,87.66
2022-10-18T16:19:29.209Z,88.18
2022-10-18T16:21:55.772Z,88.76
2022-10-18T16:24:22.856Z,88.67
2022-10-18T16:26:50.039Z,92.71
2022-10-18T16:29:22.403Z,92.40
2022-10-18T16:31:50.753Z,92.67
2022-10-18T16:34:18.133Z,93.19
2022-10-18T16:36:45.187Z,92.74
2022-10-18T16:39:19.648Z,93.03
2022-10-18T16:41:46.967Z,93.05
2022-10-18T16:44:14.166Z,93.32
2022-10-18T16:46:41.159Z,94.08
2022-10-18T16:49:07.688Z,96.98
2022-10-18T16:51:34.138Z,96.19
2022-10-18T16:54:00.615Z,96.14
2022-10-18T16:56:33.270Z,95.29
2022-10-18T16:59:00.289Z,94.79
2022-10-18T17:01:26.972Z,94.74
2022-10-18T17:03:54.142Z,96.07
2022-10-18T17:06:24.802Z,95.33
2022-10-18T17:08:52.177Z,96.51
2022-10-18T17:11:20.968Z,96.61
2022-10-18T17:13:47.514Z,97.24
2022-10-18T17:19:02.980Z,95.91
2022-10-18T17:21:30.630Z,95.38
2022-10-18T17:24:04.399Z,96.03
2022-10-18T17:26:31.423Z,96.27
2022-10-18T17:29:01.084Z,96.06
2022-10-18T17:31:28.866Z,96.30
2022-10-18T17:33:55.494Z,95.91
2022-10-18T17:36:22.491Z,95.84
2022-10-18T17:38:52.479Z,96.22
2022-10-18T17:41:19.233Z,95.21
2022-10-18T17:43:45.784Z,95.87
2022-10-18T17:46:14.137Z,98.02
2022-10-18T17:48:41.706Z,96.71
2022-10-18T17:51:10.174Z,95.90
2022-10-18T17:53:36.885Z,94.97
2022-10-18T17:56:04.470Z,95.22
2022-10-18T17:58:31.372Z,97.23
2022-10-18T18:00:59.649Z,97.17
2022-10-18T18:03:26.131Z,97.24
2022-10-18T18:05:52.527Z,97.41
2022-10-18T18:08:18.888Z,98.30
2022-10-18T18:10:45.337Z,97.59
2022-10-18T18:13:15.021Z,97.07
2022-10-18T18:15:44.011Z,98.32
2022-10-18T18:18:10.403Z,98.43
2022-10-18T18:20:36.816Z,98.11
2022-10-18T18:23:03.249Z,98.43
2022-10-18T18:25:29.709Z,98.32
2022-10-18T18:27:56.126Z,99.38
2022-10-18T18:30:23.066Z,99.53
2022-10-18T18:32:49.500Z,100.00
2022-10-18T18:35:16.046Z,100.00
2022-10-18T18:37:42.525Z,100.00
2022-10-18T18:40:09.417Z,100.00
2022-10-18T18:42:36.072Z,100.00
2022-10-18T18:45:02.992Z,100.00
2022-10-18T18:47:29.442Z,100.00
2022-10-18T18:49:55.821Z,100.00
2022-10-18T18:52:22.197Z,99.99
2022-10-18T18:54:48.676Z,99.33
2022-10-18T18:57:15.092Z,98.66
2022-10-18T18:59:41.481Z,100.00
2022-10-18T19:02:09.721Z,100.00
2022-10-18T19:04:36.461Z,100.00
2022-10-18T19:07:02.928Z,99.42
2022-10-18T19:09:29.360Z,98.66
2022-10-18T19:11:56.544Z,98.64
2022-10-18T19:14:24.778Z,98.85
2022-10-18T19:16:58.718Z,98.81
2022-10-18T19:19:27.578Z,99.65
2022-10-18T19:21:56.888Z,99.35
2022-10-18T19:24:25.348Z,98.48
2022-10-18T19:26:54.706Z,96.88
2022-10-18T19:29:27.757Z,97.02
2022-10-18T19:31:56.554Z,97.99
2022-10-18T19:34:24.573Z,98.15
2022-10-18T19:36:51.845Z,98.56
2022-10-18T19:39:19.604Z,98.35
2022-10-18T19:41:51.604Z,97.54
2022-10-18T19:44:19.333Z,97.54
2022-10-18T19:46:46.469Z,98.00
2022-10-18T19:49:12.933Z,97.52
2022-10-18T19:51:39.350Z,97.94
2022-10-18T19:54:05.861Z,97.69
2022-10-18T19:56:32.304Z,97.45
2022-10-18T19:58:59.625Z,97.80
2022-10-18T20:01:27.670Z,97.94
2022-10-18T20:03:54.468Z,96.94
2022-10-18T20:06:21.248Z,97.83
2022-10-18T20:08:48.215Z,98.40
2022-10-18T20:11:18.092Z,99.05
2022-10-18T20:13:44.538Z,99.03
2022-10-18T20:16:13.166Z,98.93
2022-10-18T20:18:40.092Z,98.78
2022-10-18T20:21:11.247Z,100.00
2022-10-18T20:23:40.164Z,100.00
2022-10-18T20:26:18.119Z,100.00
2022-10-18T20:28:49.086Z,100.00
2022-10-18T20:31:18.037Z,100.00
2022-10-18T20:33:45.786Z,100.00
2022-10-18T20:36:18.159Z,100.00
2022-10-18T20:38:46.623Z,99.79
2022-10-18T20:41:16.366Z,99.53
2022-10-18T20:43:43.766Z,99.92
2022-10-18T20:46:11.057Z,99.30
2022-10-18T20:48:38.693Z,98.62
2022-10-18T20:51:07.982Z,99.15
2022-10-18T20:53:38.474Z,98.90
2022-10-18T20:56:09.822Z,98.75
2022-10-18T20:58:38.456Z,98.58
2022-10-18T21:01:16.574Z,98.50
2022-10-18T21:03:44.925Z,98.31
2022-10-18T21:06:16.860Z,98.25
2022-10-18T21:08:44.000Z,98.77
2022-10-18T21:11:11.552Z,99.00
2022-10-18T21:13:38.605Z,98.85
2022-10-18T21:16:05.790Z,98.72
2022-10-18T21:18:34.479Z,98.93
2022-10-18T21:21:28.475Z,98.91
2022-10-18T21:23:54.968Z,99.23
2022-10-18T21:26:24.343Z,98.76
2022-10-18T21:28:52.892Z,98.75
2022-10-18T21:31:22.046Z,98.58
2022-10-18T21:33:55.788Z,98.17
2022-10-18T21:36:23.382Z,97.16
2022-10-18T21:38:50.303Z,97.90
2022-10-18T21:41:18.428Z,99.43
2022-10-18T21:43:48.930Z,99.19
2022-10-18T21:46:17.151Z,98.65
2022-10-18T21:48:45.774Z,98.21
2022-10-18T21:51:14.249Z,97.86
2022-10-18T21:53:45.531Z,98.33
2022-10-18T21:56:18.213Z,97.63
2022-10-18T21:58:45.634Z,98.11
2022-10-18T22:01:18.055Z,98.32
2022-10-18T22:03:45.344Z,98.13
2022-10-18T22:06:14.663Z,97.41
2022-10-18T22:08:42.959Z,99.73
2022-10-18T22:11:09.932Z,99.93
2022-10-18T22:13:36.376Z,100.00
2022-10-18T22:16:05.670Z,100.00
2022-10-18T22:18:32.912Z,100.00
2022-10-18T22:21:02.192Z,100.00
2022-10-18T22:23:33.580Z,100.00
2022-10-18T22:26:15.439Z,100.00
2022-10-18T22:28:43.781Z,100.00
2022-10-18T22:31:18.406Z,100.00
2022-10-18T22:33:45.366Z,100.00
2022-10-18T22:36:12.750Z,99.65
2022-10-18T22:38:39.706Z,99.27
2022-10-18T22:41:08.231Z,99.42
2022-10-18T22:43:38.094Z,99.12
2022-10-18T22:46:07.026Z,99.09
2022-10-18T22:48:36.673Z,99.06
2022-10-18T22:51:03.905Z,98.96
2022-10-18T22:53:31.261Z,98.34
2022-10-18T22:55:57.825Z,98.20
2022-10-18T22:58:26.353Z,98.60
2022-10-18T23:01:09.969Z,99.87
2022-10-18T23:03:37.146Z,100.00
2022-10-18T23:06:04.628Z,100.00
2022-10-18T23:08:32.105Z,100.00
2022-10-18T23:10:59.853Z,100.00
2022-10-18T23:13:27.441Z,100.00
2022-10-18T23:16:04.538Z,100.00
2022-10-18T23:18:32.314Z,100.00
2022-10-18T23:21:07.371Z,100.00
2022-10-18T23:23:35.758Z,100.00
2022-10-18T23:26:04.333Z,100.00
2022-10-18T23:28:33.727Z,100.00
2022-10-18T23:31:05.467Z,100.00
2022-10-18T23:33:31.911Z,100.00
2022-10-18T23:36:01.689Z,100.00
2022-10-18T23:38:32.546Z,100.00
2022-10-18T23:40:59.008Z,100.00
2022-10-18T23:43:25.612Z,100.00
2022-10-18T23:45:53.966Z,100.00
2022-10-18T23:48:20.371Z,100.00
2022-10-18T23:50:46.830Z,100.00
2022-10-18T23:53:13.433Z,100.00
2022-10-18T23:55:39.779Z,100.00
2022-10-18T23:58:06.221Z,100.00
